Time;durP1;ratioP1;P1;durP2;ratioP2;P2;SDS_P1;SDS_P2;PMS_P1;PMS_P2;Temp;Humidity;BMP_temperature;BMP_pressure;BME280_temperature;BME280_humidity;BME280_pressure;Samples;Min_cycle;Max_cycle;Signal;HPM_P1;HPM_P2
2022/09/04 00:00:09;;;;;;;12.32;7.38;;;;;;;22.13;59.01;100796.09;5057731;28;19920;-66
2022/09/04 00:02:51;;;;;;;15.45;7.38;;;;;;;22.08;59.06;100796.44;5057338;28;20053;-66
2022/09/04 00:05:34;;;;;;;12.77;7.83;;;;;;;22.03;59.78;100796.81;5068058;28;20484;-64
2022/09/04 00:08:22;;;;;;;9.85;6.68;;;;;;;22.14;59.21;100802.50;5036343;28;20041;-65
2022/09/04 00:11:11;;;;;;;10.55;7.28;;;;;;;22.03;59.08;100802.41;5035572;28;20512;-66
2022/09/04 00:13:44;;;;;;;10.05;6.57;;;;;;;21.96;59.73;100798.75;5037661;28;20400;-65
2022/09/04 00:16:23;;;;;;;11.05;6.70;;;;;;;21.97;59.49;100803.16;5019398;28;20045;-65
2022/09/04 00:19:02;;;;;;;9.97;6.23;;;;;;;21.92;59.38;100809.94;5035732;28;20607;-65
2022/09/04 00:21:35;;;;;;;10.75;6.82;;;;;;;21.95;59.61;100816.78;5035458;28;20519;-66
2022/09/04 00:24:24;;;;;;;9.10;6.10;;;;;;;21.88;59.40;100814.69;5049835;28;20048;-65
2022/09/04 00:26:53;;;;;;;11.88;5.80;;;;;;;;;;5056975;28;20056;-64
2022/09/04 00:29:35;;;;;;;10.27;5.80;;;;;;;21.74;59.04;100824.97;5072248;28;20519;-65
2022/09/04 00:32:22;;;;;;;11.63;5.97;;;;;;;21.72;59.26;100816.13;5056938;28;20516;-65
2022/09/04 00:34:55;;;;;;;11.13;5.93;;;;;;;21.76;59.04;100828.97;5057074;28;20053;-64
2022/09/04 00:37:27;;;;;;;9.07;5.63;;;;;;;21.74;59.06;100825.75;5054508;28;20057;-65
2022/09/04 00:40:32;;;;;;;7.82;5.53;;;;;;;21.68;59.33;100832.09;5055344;28;20049;-65
2022/09/04 00:43:12;;;;;;;9.35;5.78;;;;;;;21.50;60.33;100834.72;5056720;28;20060;-64
2022/09/04 00:45:42;;;;;;;9.68;5.85;;;;;;;21.52;59.45;100839.94;5056616;28;20631;-65
2022/09/04 00:48:15;;;;;;;8.60;5.85;;;;;;;21.45;59.35;100843.47;5038211;28;20053;-65
2022/09/04 00:50:54;;;;;;;10.15;5.47;;;;;;;21.56;59.54;100833.19;5071597;28;20060;-64
2022/09/04 00:53:30;;;;;;;9.43;5.78;;;;;;;21.55;59.63;100837.16;5055590;28;20048;-64
2022/09/04 00:56:35;;;;;;;11.93;5.82;;;;;;;21.38;60.27;100837.78;5054922;28;20064;-64
2022/09/04 00:59:21;;;;;;;8.07;5.05;;;;;;;21.59;59.64;100835.22;5054807;28;20045;-64
2022/09/04 01:01:50;;;;;;;8.38;5.50;;;;;;;21.49;59.53;100844.31;5056034;28;20061;-65
2022/09/04 01:04:27;;;;;;;8.57;5.85;;;;;;;21.57;59.61;100846.00;5059863;28;20554;-65
2022/09/04 01:07:26;;;;;;;10.95;5.43;;;;;;;21.58;58.86;100850.44;5047374;28;20053;-65
2022/09/04 01:10:03;;;;;;;8.17;5.40;;;;;;;21.36;59.62;100861.78;5051310;28;20495;-65
2022/09/04 01:12:37;;;;;;;7.90;5.53;;;;;;;21.44;59.38;100869.09;5038366;28;20464;-65
2022/09/04 01:15:13;;;;;;;9.57;5.32;;;;;;;21.34;59.90;100862.16;5056271;28;20056;-65
2022/09/04 01:17:49;;;;;;;9.07;5.35;;;;;;;21.43;59.72;100864.69;5055825;28;20053;-65
2022/09/04 01:20:49;;;;;;;8.00;5.35;;;;;;;21.25;60.34;100864.47;5037396;28;20462;-65
2022/09/04 01:23:24;;;;;;;9.55;5.65;;;;;;;21.25;60.59;100870.06;5063255;28;20490;-65
2022/09/04 01:26:16;;;;;;;10.07;5.70;;;;;;;21.14;60.17;100875.53;5075662;28;20063;-65
2022/09/04 01:28:52;;;;;;;7.03;5.07;;;;;;;21.23;60.53;100878.03;5076130;28;20055;-65
2022/09/04 01:31:20;;;;;;;8.88;5.60;;;;;;;21.10;60.25;100879.47;5046939;28;20068;-65
2022/09/04 01:33:59;;;;;;;12.70;5.63;;;;;;;21.04;60.48;100881.00;5055894;28;20049;-65
2022/09/04 01:36:31;;;;;;;15.38;5.63;;;;;;;21.00;60.25;100880.13;5037770;28;20390;-65
2022/09/04 01:39:00;;;;;;;8.90;5.40;;;;;;;21.09;60.18;100884.28;5055529;28;20041;-65
2022/09/04 01:42:00;;;;;;;8.57;5.20;;;;;;;21.07;60.55;100883.03;5055159;28;20055;-65
2022/09/04 01:44:28;;;;;;;8.75;4.97;;;;;;;21.03;60.07;100884.97;5055727;28;20063;-65
2022/09/04 01:47:08;;;;;;;8.13;4.82;;;;;;;21.04;59.50;100884.59;5037649;28;20052;-65
2022/09/04 01:49:58;;;;;;;7.63;4.65;;;;;;;21.03;59.46;100891.38;5055585;28;20055;-64
2022/09/04 01:52:35;;;;;;;9.30;4.75;;;;;;;21.11;59.79;100881.09;5055365;28;20056;-65
2022/09/04 01:55:22;;;;;;;8.77;4.95;;;;;;;21.03;59.84;100883.00;5075651;28;20060;-65
2022/09/04 01:58:06;;;;;;;11.13;4.72;;;;;;;20.95;59.67;100892.47;5057579;28;20067;-64
2022/09/04 02:00:46;;;;;;;8.27;4.28;;;;;;;21.03;59.39;100890.56;5056805;28;20146;-65
2022/09/04 02:03:38;;;;;;;9.55;4.40;;;;;;;21.18;58.91;100898.00;5057739;28;20472;-65
2022/09/04 02:06:44;;;;;;;6.63;3.95;;;;;;;20.96;58.66;100896.03;5079648;28;20057;-66
2022/09/04 02:09:36;;;;;;;6.97;3.90;;;;;;;21.02;58.63;100901.00;4993073;28;20073;-64
2022/09/04 02:12:16;;;;;;;8.25;3.65;;;;;;;21.01;58.22;100893.75;4977099;28;20122;-64
2022/09/04 02:15:03;;;;;;;6.22;3.38;;;;;;;20.98;57.67;100907.69;5024011;28;20088;-64
2022/09/04 02:18:01;;;;;;;6.95;3.70;;;;;;;21.07;58.25;100902.63;5032732;28;20053;-64
2022/09/04 02:20:29;;;;;;;7.68;3.42;;;;;;;21.00;57.99;100903.34;5006998;28;20501;-64
2022/09/04 02:23:05;;;;;;;7.95;2.90;;;;;;;20.90;57.26;100908.78;5039577;28;20827;-64
2022/09/04 02:25:55;;;;;;;5.10;2.70;;;;;;;20.67;56.29;100917.25;5046947;28;20076;-65
2022/09/04 02:28:38;;;;;;;7.80;3.00;;;;;;;20.68;57.96;100920.81;5035100;28;20053;-65
2022/09/04 02:31:21;;;;;;;6.90;3.00;;;;;;;20.82;57.47;100913.47;5016072;28;20041;-65
2022/09/04 02:34:08;;;;;;;6.95;2.85;;;;;;;20.77;57.69;100918.56;5035055;28;20057;-63
2022/09/04 02:36:45;;;;;;;8.25;2.80;;;;;;;20.71;57.32;100920.09;5032652;28;20070;-65
2022/09/04 02:39:42;;;;;;;7.07;3.28;;;;;;;20.78;57.65;100920.19;5033179;28;20397;-65
2022/09/04 02:42:34;;;;;;;10.73;3.08;;;;;;;20.75;57.29;100920.94;5033233;28;20519;-65
2022/09/04 02:45:12;;;;;;;9.23;2.97;;;;;;;20.73;57.48;100926.13;5034969;28;20057;-64
2022/09/04 02:47:51;;;;;;;6.20;2.80;;;;;;;20.62;57.88;100925.97;5033136;28;20057;-65
2022/09/04 02:50:38;;;;;;;7.68;3.00;;;;;;;20.77;58.36;100927.78;4983485;28;20060;-65
2022/09/04 02:53:36;;;;;;;7.22;3.10;;;;;;;20.82;57.78;100941.47;5034775;28;20056;-65
2022/09/04 02:56:15;;;;;;;8.10;2.85;;;;;;;20.97;57.13;100936.88;5034281;28;20056;-64
2022/09/04 02:59:06;;;;;;;6.00;2.30;;;;;;;20.93;55.75;100948.03;5034715;28;20056;-65
2022/09/04 03:01:56;;;;;;;6.10;2.75;;;;;;;20.80;55.40;100935.41;5032593;28;20050;-66
2022/09/04 03:04:49;;;;;;;8.15;2.97;;;;;;;20.72;56.05;100933.72;5044427;28;20051;-65
2022/09/04 03:07:22;;;;;;;7.38;3.08;;;;;;;20.57;56.45;100940.28;5039273;28;20058;-64
2022/09/04 03:10:07;;;;;;;7.25;3.10;;;;;;;20.64;56.52;100934.75;5049104;28;20064;-65
2022/09/04 03:12:41;;;;;;;7.55;2.80;;;;;;;20.74;56.55;100941.72;5036593;28;20053;-64
2022/09/04 03:15:31;;;;;;;7.63;3.05;;;;;;;20.89;56.81;100949.16;5036869;28;20052;-65
2022/09/04 03:18:03;;;;;;;8.77;2.73;;;;;;;20.86;56.65;100949.91;5036721;28;20065;-65
2022/09/04 03:20:35;;;;;;;5.00;2.50;;;;;;;20.73;56.21;100940.91;5003242;28;20674;-65
2022/09/04 03:23:18;;;;;;;5.55;2.78;;;;;;;20.82;56.74;100947.06;5042260;28;20063;-65
2022/09/04 03:25:51;;;;;;;7.05;2.78;;;;;;;20.84;56.47;100941.88;5052208;28;20049;-65
2022/09/04 03:28:26;;;;;;;5.55;2.25;;;;;;;20.91;56.58;100939.19;5054204;28;20439;-65
2022/09/04 03:30:56;;;;;;;6.40;2.38;;;;;;;20.71;56.33;100945.28;5036364;28;20041;-65
2022/09/04 03:33:34;;;;;;;7.07;2.65;;;;;;;20.89;56.36;100949.16;5053425;28;20053;-64
2022/09/04 03:36:13;;;;;;;6.25;2.80;;;;;;;20.79;56.54;100949.81;5035985;28;20049;-64
2022/09/04 03:38:51;;;;;;;6.30;2.58;;;;;;;20.73;57.17;100957.72;5036660;28;20053;-64
2022/09/04 03:41:37;;;;;;;6.32;3.10;;;;;;;20.90;55.49;100948.78;5025387;28;20056;-64
2022/09/04 03:44:35;;;;;;;8.10;3.03;;;;;;;20.79;56.42;100945.03;5055127;28;20053;-65
2022/09/04 03:47:30;;;;;;;8.50;3.60;;;;;;;20.78;56.50;100943.38;5057213;28;20072;-65
2022/09/04 03:50:08;;;;;;;6.80;2.72;;;;;;;20.58;56.60;100946.66;5040171;28;20053;-65
2022/09/04 03:52:39;;;;;;;8.05;3.00;;;;;;;20.74;57.10;100944.53;5057409;28;20492;-65
2022/09/04 03:55:32;;;;;;;9.52;3.47;;;;;;;20.89;55.68;100951.94;5040100;28;20174;-65
2022/09/04 03:58:21;;;;;;;5.05;2.58;;;;;;;20.53;56.52;100942.19;5057939;28;20053;-64
2022/09/04 04:01:04;;;;;;;7.28;3.13;;;;;;;20.70;56.90;100950.06;5039377;28;20041;-64
2022/09/04 04:04:01;;;;;;;5.75;2.40;;;;;;;20.36;56.81;100953.91;5057507;28;20393;-64
2022/09/04 04:06:37;;;;;;;5.25;2.72;;;;;;;20.35;57.23;100948.66;5023183;28;20060;-64
2022/09/04 04:09:45;;;;;;;5.38;2.83;;;;;;;20.70;56.04;100955.66;5039618;28;20056;-64
2022/09/04 04:12:30;;;;;;;8.30;3.20;;;;;;;20.50;56.75;100954.16;5056955;28;20049;-65
2022/09/04 04:15:26;;;;;;;7.47;2.90;;;;;;;20.36;57.29;100959.50;5022876;28;20065;-64
2022/09/04 04:18:12;;;;;;;7.13;2.90;;;;;;;20.47;57.93;100965.28;5039620;28;20385;-64
2022/09/04 04:20:44;;;;;;;6.38;2.67;;;;;;;20.63;56.89;100965.94;5023594;28;20056;-65
2022/09/04 04:23:35;;;;;;;6.60;2.97;;;;;;;20.55;57.02;100958.63;5046005;28;20052;-65
2022/09/04 04:26:20;;;;;;;7.63;2.60;;;;;;;20.61;57.18;100959.91;5058578;28;20052;-65
2022/09/04 04:29:07;;;;;;;8.20;2.70;;;;;;;20.71;57.16;100962.88;5059409;28;20056;-64
2022/09/04 04:34:57;;;;;;;8.13;2.55;;;;;;;20.49;56.69;100960.09;5061493;28;20053;-65
2022/09/04 04:37:49;;;;;;;6.07;2.50;;;;;;;20.62;55.83;100967.13;5058608;28;20052;-65
2022/09/04 04:40:34;;;;;;;6.60;2.78;;;;;;;20.52;55.99;100962.16;5076698;28;20036;-65
2022/09/04 04:43:10;;;;;;;7.72;2.15;;;;;;;20.46;56.77;100960.84;5059240;28;20045;-65
2022/09/04 04:45:51;;;;;;;9.10;2.55;;;;;;;20.48;56.55;100967.72;5076192;28;20858;-64
2022/09/04 04:48:23;;;;;;;5.88;2.40;;;;;;;20.56;55.75;100977.81;5058890;28;20067;-64
2022/09/04 04:51:39;;;;;;;9.18;3.05;;;;;;;20.57;56.41;100982.25;5058323;28;20523;-65
2022/09/04 04:54:16;;;;;;;6.13;2.00;;;;;;;20.44;56.25;100977.19;5058811;28;20082;-65
2022/09/04 04:56:50;;;;;;;7.22;2.78;;;;;;;20.67;55.65;100981.63;5074466;28;20060;-65
2022/09/04 04:59:36;;;;;;;9.73;2.58;;;;;;;20.43;55.68;100984.00;5059031;28;20121;-65
2022/09/04 05:02:17;;;;;;;5.65;2.58;;;;;;;20.59;56.18;100987.47;5041413;28;20495;-64
2022/09/04 05:05:21;;;;;;;6.60;2.50;;;;;;;20.54;56.64;100993.41;5085197;28;20036;-64
2022/09/04 05:08:09;;;;;;;6.22;2.47;;;;;;;20.61;56.13;100993.50;5038525;28;20049;-66
2022/09/04 05:10:46;;;;;;;5.78;2.28;;;;;;;20.58;55.60;100995.06;5021808;28;20045;-64
2022/09/04 05:13:22;;;;;;;11.15;2.65;;;;;;;20.62;55.55;100990.34;5022386;28;20079;-64
2022/09/04 05:16:04;;;;;;;6.55;2.67;;;;;;;20.49;55.89;101007.66;5055893;28;20048;-65
2022/09/04 05:18:44;;;;;;;6.90;2.58;;;;;;;20.61;55.11;100999.91;5039136;28;20064;-67
2022/09/04 05:21:20;;;;;;;7.68;2.83;;;;;;;20.60;55.69;100995.50;5021666;28;20098;-65
2022/09/04 05:23:58;;;;;;;6.25;2.45;;;;;;;20.60;55.51;101009.50;5033119;28;20096;-64
2022/09/04 05:26:32;;;;;;;8.20;3.00;;;;;;;20.59;56.05;101012.66;5075433;28;20060;-66
2022/09/04 05:29:08;;;;;;;8.73;2.53;;;;;;;20.66;55.75;101013.59;5058435;28;20052;-64
2022/09/04 05:32:20;;;;;;;7.85;2.55;;;;;;;20.42;55.44;101025.16;5057759;28;20067;-65
2022/09/04 05:35:00;;;;;;;7.20;2.50;;;;;;;20.37;55.90;101021.84;5050676;28;20063;-65
2022/09/04 05:37:35;;;;;;;6.75;2.63;;;;;;;20.46;56.13;101030.81;5056769;28;20052;-64
2022/09/04 05:40:28;;;;;;;11.32;2.85;;;;;;;20.51;55.89;101034.13;5057613;28;20499;-65
2022/09/04 05:43:17;;;;;;;8.65;2.90;;;;;;;20.36;56.05;101032.25;5057889;28;20059;-66
2022/09/04 05:46:08;;;;;;;8.98;2.85;;;;;;;20.41;56.10;101039.53;5075101;28;20040;-66
2022/09/04 05:48:53;;;;;;;;;;;;;;;20.52;56.73;101046.13;5038373;28;20061;-64
2022/09/04 05:51:39;;;;;;;8.25;2.70;;;;;;;20.30;55.85;101046.91;5075001;28;19920;-66
2022/09/04 05:54:12;;;;;;;7.70;2.88;;;;;;;20.37;55.71;101047.03;5057024;28;20048;-66
2022/09/04 05:56:55;;;;;;;7.03;2.58;;;;;;;20.44;56.40;101053.56;5056676;28;20052;-66
2022/09/04 05:59:46;;;;;;;8.95;2.67;;;;;;;20.38;56.13;101051.47;5041138;28;20412;-67
2022/09/04 06:02:43;;;;;;;9.02;2.88;;;;;;;20.51;56.80;101056.50;5023826;28;20057;-65
2022/09/04 06:05:22;;;;;;;6.63;2.80;;;;;;;20.50;56.33;101059.69;5061430;28;20048;-65
2022/09/04 06:08:20;;;;;;;9.23;2.75;;;;;;;20.56;56.34;101060.97;5036842;28;20053;-66
2022/09/04 06:11:00;;;;;;;6.95;2.63;;;;;;;20.60;55.62;101059.88;5054782;28;20049;-66
2022/09/04 06:14:06;;;;;;;8.73;3.22;;;;;;;20.55;55.27;101059.38;5037707;28;20059;-66
2022/09/04 06:16:59;;;;;;;8.05;3.00;;;;;;;20.57;55.60;101059.81;5036844;28;20055;-66
2022/09/04 06:19:38;;;;;;;7.43;3.13;;;;;;;20.50;56.32;101062.47;5036145;28;20057;-66
2022/09/04 06:22:43;;;;;;;8.73;3.10;;;;;;;20.26;56.64;101060.81;5053723;28;20053;-66
2022/09/04 06:25:42;;;;;;;7.18;2.80;;;;;;;20.37;56.42;101069.41;5036440;28;20061;-65
2022/09/04 06:28:37;;;;;;;8.77;3.17;;;;;;;20.44;57.23;101075.16;5054044;28;20067;-66
2022/09/04 06:31:20;;;;;;;8.43;3.10;;;;;;;20.70;56.41;101075.22;5022039;28;20037;-66
2022/09/04 06:33:59;;;;;;;9.48;3.58;;;;;;;20.59;57.00;101079.84;5036821;28;20542;-67
2022/09/04 06:36:41;;;;;;;8.70;3.00;;;;;;;20.68;56.68;101080.38;5054317;28;20049;-66
2022/09/04 06:39:35;;;;;;;8.82;3.05;;;;;;;20.66;56.82;101083.56;5055015;28;20057;-66
2022/09/04 06:42:21;;;;;;;8.00;3.00;;;;;;;20.33;56.99;101080.53;5036803;28;20416;-66
2022/09/04 06:45:08;;;;;;;9.18;3.35;;;;;;;20.49;57.27;101083.22;5054287;28;20057;-67
2022/09/04 06:47:41;;;;;;;12.50;3.38;;;;;;;20.70;56.56;101094.81;5072962;28;20052;-65
2022/09/04 06:50:38;;;;;;;7.78;3.05;;;;;;;20.31;56.78;101096.88;5057521;28;20052;-66
2022/09/04 06:53:29;;;;;;;9.85;3.17;;;;;;;20.33;57.96;101097.31;5055880;28;20064;-67
2022/09/04 06:56:24;;;;;;;7.47;3.22;;;;;;;20.31;57.26;101101.69;5056308;28;20049;-66
2022/09/04 06:59:17;;;;;;;8.20;3.83;;;;;;;20.54;57.18;101106.13;5073956;28;20056;-66
2022/09/04 07:02:17;;;;;;;9.13;2.80;;;;;;;20.47;57.15;101106.00;5074324;28;20492;-66
2022/09/04 07:04:54;;;;;;;7.38;2.92;;;;;;;20.50;56.18;101096.06;5083347;28;20051;-66
2022/09/04 07:07:21;;;;;;;7.95;2.97;;;;;;;20.53;56.94;101112.09;5057366;28;20543;-66
2022/09/04 07:09:53;;;;;;;11.88;3.08;;;;;;;20.39;56.69;101106.22;5054453;28;20064;-67
2022/09/04 07:13:04;;;;;;;9.63;3.00;;;;;;;20.65;57.05;101095.97;5037263;28;20055;-66
2022/09/04 07:15:51;;;;;;;5.45;2.83;;;;;;;20.53;56.39;101107.31;5053940;28;20053;-66
2022/09/04 07:18:36;;;;;;;7.55;2.70;;;;;;;20.70;57.05;101112.44;5054173;28;20431;-67
2022/09/04 07:21:29;;;;;;;6.97;3.15;;;;;;;20.71;56.22;101118.84;5040198;28;20056;-66
2022/09/04 07:24:14;;;;;;;8.48;3.20;;;;;;;20.88;56.90;101118.38;5070656;28;20071;-66
2022/09/04 07:27:06;;;;;;;6.45;2.78;;;;;;;20.92;55.74;101127.66;5077801;28;20053;-66
2022/09/04 07:29:38;;;;;;;7.38;3.22;;;;;;;21.06;55.96;101130.72;5043719;28;20056;-68
2022/09/04 07:32:16;;;;;;;8.98;3.33;;;;;;;21.08;55.54;101128.34;5059882;28;20057;-66
2022/09/04 07:34:55;;;;;;;7.45;2.70;;;;;;;21.16;55.49;101132.91;5060900;28;20056;-65
2022/09/04 07:37:28;;;;;;;6.72;2.42;;;;;;;21.33;54.74;101132.38;5077256;28;20061;-65
2022/09/04 07:40:16;;;;;;;9.65;3.22;;;;;;;21.38;54.23;101142.44;5060441;28;20056;-65
2022/09/04 07:42:48;;;;;;;9.43;3.00;;;;;;;21.44;54.27;101130.56;5060190;28;20064;-66
2022/09/04 07:45:28;;;;;;;6.50;2.53;;;;;;;21.55;53.52;101130.72;5060003;28;20076;-66
2022/09/04 07:48:35;;;;;;;6.13;2.83;;;;;;;21.31;53.05;101142.34;5077676;28;20055;-67
2022/09/04 07:51:15;;;;;;;7.80;2.78;;;;;;;21.36;53.25;101145.63;5026504;28;20563;-66
2022/09/04 07:54:01;;;;;;;10.52;2.55;;;;;;;21.29;54.08;101141.91;5077589;28;20056;-66
2022/09/04 07:56:55;;;;;;;7.72;2.70;;;;;;;21.55;52.76;101147.56;5058809;28;20056;-65
2022/09/04 07:59:28;;;;;;;8.00;2.88;;;;;;;21.50;53.49;101157.06;5072349;28;20060;-66
2022/09/04 08:02:06;;;;;;;8.77;4.95;;;;;;;21.56;53.67;101154.75;5058897;28;20052;-65
2022/09/04 08:05:15;;;;;;;9.27;3.60;;;;;;;21.69;53.06;101156.19;5084596;28;20040;-66
2022/09/04 08:08:02;;;;;;;9.43;4.60;;;;;;;21.76;52.24;101159.09;4985589;28;20176;-66
2022/09/04 08:10:32;;;;;;;11.60;5.80;;;;;;;21.94;52.55;101162.97;5059919;28;20064;-66
2022/09/04 08:13:02;;;;;;;;;;;;;;;21.94;52.50;101161.00;5077717;28;20424;-66
2022/09/04 08:15:46;;;;;;;8.68;3.95;;;;;;;22.06;51.96;101160.75;5076675;28;20616;-66
2022/09/04 08:18:21;;;;;;;5.38;2.40;;;;;;;22.40;50.61;101166.41;5059842;28;20045;-66
2022/09/04 08:21:24;;;;;;;6.50;2.67;;;;;;;22.15;50.79;101166.06;5058800;28;20055;-65
2022/09/04 08:24:16;;;;;;;8.48;2.88;;;;;;;22.06;51.59;101168.34;5039539;28;20052;-66
2022/09/04 08:27:22;;;;;;;7.30;2.42;;;;;;;22.27;50.41;101169.47;5028865;28;20037;-66
2022/09/04 08:30:09;;;;;;;11.30;2.53;;;;;;;22.29;50.96;101160.66;5056912;28;20056;-66
2022/09/04 08:33:31;;;;;;;8.88;2.85;;;;;;;22.22;51.51;101164.19;5058019;28;20051;-66
2022/09/04 08:36:23;;;;;;;11.82;3.33;;;;;;;22.36;51.16;101166.34;5033122;28;20053;-66
2022/09/04 08:39:10;;;;;;;7.35;2.72;;;;;;;22.45;51.23;101166.06;5060134;28;20060;-66
2022/09/04 08:41:44;;;;;;;8.55;2.88;;;;;;;22.50;50.86;101174.13;5058487;28;20055;-66
2022/09/04 08:44:33;;;;;;;6.45;2.78;;;;;;;22.52;50.95;101168.94;5076726;28;20053;-65
2022/09/04 08:47:37;;;;;;;9.27;3.08;;;;;;;22.51;50.39;101175.78;5076134;28;20063;-66
2022/09/04 08:50:26;;;;;;;6.47;2.65;;;;;;;22.58;49.88;101170.28;5076755;28;20048;-66
2022/09/04 08:53:18;;;;;;;6.03;2.25;;;;;;;22.69;50.67;101174.81;5058648;28;20408;-66
2022/09/04 08:55:49;;;;;;;5.97;2.70;;;;;;;22.94;49.95;101180.69;5076174;28;20048;-66
2022/09/04 08:58:33;;;;;;;7.63;2.80;;;;;;;22.70;49.32;101173.59;5076339;28;20056;-67
2022/09/04 09:01:22;;;;;;;6.07;3.00;;;;;;;22.80;49.04;101183.34;5076120;28;20059;-66
2022/09/04 09:03:55;;;;;;;9.82;2.80;;;;;;;22.61;48.96;101180.72;5077356;28;20523;-66
2022/09/04 09:06:44;;;;;;;8.65;4.90;;;;;;;22.80;49.02;101180.53;5076788;28;20056;-66
2022/09/04 09:09:27;;;;;;;8.45;3.15;;;;;;;22.92;48.53;101169.84;5037587;28;20096;-68
2022/09/04 09:12:42;;;;;;;6.10;2.55;;;;;;;22.90;47.95;101179.84;5055257;28;20056;-67
2022/09/04 09:15:22;;;;;;;6.88;2.33;;;;;;;22.93;47.36;101181.88;4994319;28;20506;-67
2022/09/04 09:17:52;;;;;;;;;;;;;;;22.82;46.90;101184.56;4994293;28;20061;-66
2022/09/04 09:20:45;;;;;;;7.97;2.50;;;;;;;22.83;46.87;101191.00;5013161;28;20242;-66
2022/09/04 09:23:15;;;;;;;6.15;2.42;;;;;;;23.22;46.38;101176.16;5055991;28;20129;-67
2022/09/04 09:25:48;;;;;;;5.57;1.95;;;;;;;22.91;46.63;101179.44;5043002;28;20048;-66
2022/09/04 09:28:34;;;;;;;9.98;2.28;;;;;;;23.15;46.47;101175.28;5058228;28;20044;-66
2022/09/04 09:31:25;;;;;;;5.82;2.20;;;;;;;23.26;46.03;101176.19;5075377;28;20052;-68
2022/09/04 09:34:18;;;;;;;4.82;2.10;;;;;;;23.45;45.40;101175.97;5075115;28;20059;-67
2022/09/04 09:37:22;;;;;;;9.80;2.42;;;;;;;23.64;46.35;101177.75;5075152;28;20048;-66
2022/09/04 09:40:16;;;;;;;6.28;2.38;;;;;;;23.56;45.71;101176.88;5057599;28;20049;-67
2022/09/04 09:42:53;;;;;;;11.40;2.30;;;;;;;23.61;44.93;101170.88;5074706;28;20052;-67
2022/09/04 09:46:01;;;;;;;11.23;2.30;;;;;;;23.83;44.04;101174.66;5075406;28;20060;-66
2022/09/04 09:49:03;;;;;;;7.78;2.13;;;;;;;24.03;44.53;101176.81;5047580;28;20064;-67
2022/09/04 09:52:07;;;;;;;6.13;2.08;;;;;;;23.90;43.46;101169.88;5056295;28;20064;-67
2022/09/04 09:54:56;;;;;;;7.07;2.10;;;;;;;23.76;43.42;101172.63;5057639;28;20060;-68
2022/09/04 09:57:35;;;;;;;7.07;2.78;;;;;;;24.11;45.28;101172.84;5056963;28;20053;-67
2022/09/04 10:00:09;;;;;;;6.37;2.50;;;;;;;24.15;43.93;101170.84;5055691;28;20048;-67
2022/09/04 10:02:45;;;;;;;7.68;2.33;;;;;;;24.21;42.51;101174.94;5054691;28;20045;-66
2022/09/04 10:05:27;;;;;;;4.63;1.92;;;;;;;24.21;42.80;101166.47;5079836;28;20486;-67
2022/09/04 10:08:28;;;;;;;8.43;2.10;;;;;;;24.26;43.69;101168.91;5055254;28;20045;-66
2022/09/04 10:11:39;;;;;;;7.32;2.33;;;;;;;24.31;43.67;101162.91;5054851;28;20057;-67
2022/09/04 10:14:44;;;;;;;7.80;1.98;;;;;;;24.35;44.01;101155.28;5036855;28;20053;-66
2022/09/04 10:17:35;;;;;;;6.55;1.67;;;;;;;24.59;41.94;101158.56;5054501;28;20056;-67
2022/09/04 10:20:32;;;;;;;5.95;1.90;;;;;;;24.39;42.24;101156.09;5055122;28;20060;-68
2022/09/04 10:23:41;;;;;;;5.47;2.00;;;;;;;24.42;42.47;101146.88;5036874;28;20037;-67
2022/09/04 10:26:34;;;;;;;5.68;1.70;;;;;;;24.62;42.22;101152.94;5000735;28;20058;-67
2022/09/04 10:29:32;;;;;;;5.85;1.85;;;;;;;24.48;42.38;101139.63;5037707;28;20053;-67
2022/09/04 10:32:21;;;;;;;6.28;2.17;;;;;;;24.54;42.13;101145.69;5069408;28;20048;-67
2022/09/04 10:35:08;;;;;;;4.80;2.08;;;;;;;24.60;42.13;101157.38;5056602;28;20171;-67
2022/09/04 10:37:50;;;;;;;7.50;3.10;;;;;;;24.87;42.26;101159.50;5074151;28;20518;-67
2022/09/04 10:40:44;;;;;;;4.72;2.30;;;;;;;24.92;42.51;101139.38;5073750;28;20545;-67
2022/09/04 10:43:34;;;;;;;;;;;;;;;24.85;41.79;101141.34;5058086;28;20048;-66
2022/09/04 10:46:21;;;;;;;4.45;1.92;;;;;;;24.70;41.87;101142.53;5056561;28;19921;-66
2022/09/04 10:49:20;;;;;;;7.10;2.20;;;;;;;24.73;42.29;101141.72;5057129;28;20040;-66
2022/09/04 10:52:14;;;;;;;7.28;2.42;;;;;;;25.04;42.08;101140.97;5074215;28;20049;-67
2022/09/04 10:54:55;;;;;;;5.78;2.35;;;;;;;25.05;42.15;101134.16;5055873;28;20053;-67
2022/09/04 10:58:00;;;;;;;6.13;2.35;;;;;;;25.35;42.03;101129.72;5056318;28;20052;-68
2022/09/04 11:01:07;;;;;;;5.80;2.47;;;;;;;25.24;41.33;101131.75;5074065;28;20040;-67
2022/09/04 11:03:52;;;;;;;6.22;1.88;;;;;;;25.42;41.19;101123.28;5073985;28;20072;-67
2022/09/04 11:06:41;;;;;;;8.45;2.20;;;;;;;25.55;41.33;101122.50;5053246;28;20079;-67
2022/09/04 11:09:20;;;;;;;6.82;1.98;;;;;;;25.64;41.22;101124.06;5036835;28;20083;-67
2022/09/04 11:12:06;;;;;;;5.00;1.92;;;;;;;25.67;40.93;101118.44;5054156;28;20057;-68
2022/09/04 11:14:39;;;;;;;5.97;2.20;;;;;;;25.52;40.45;101123.28;5054158;28;20064;-67
2022/09/04 11:17:31;;;;;;;4.85;1.95;;;;;;;25.45;40.98;101128.13;5053660;28;20052;-67
2022/09/04 11:20:04;;;;;;;4.95;2.22;;;;;;;25.40;40.53;101114.44;5036214;28;20052;-67
2022/09/04 11:22:56;;;;;;;5.20;2.00;;;;;;;25.51;40.54;101116.03;5037248;28;20057;-67
2022/09/04 11:26:04;;;;;;;5.32;2.33;;;;;;;25.55;40.57;101114.03;5073643;28;20063;-68
2022/09/04 11:28:39;;;;;;;5.68;2.20;;;;;;;25.71;39.89;101124.06;5074479;28;20072;-66
2022/09/04 11:31:28;;;;;;;5.70;2.22;;;;;;;25.77;40.45;101111.94;5074022;28;20048;-66
2022/09/04 11:34:15;;;;;;;11.75;2.97;;;;;;;25.91;39.79;101105.47;5073884;28;20499;-67
2022/09/04 11:37:01;;;;;;;6.35;2.70;;;;;;;26.01;39.44;101107.47;5073241;28;20060;-67
2022/09/04 11:39:55;;;;;;;4.20;2.03;;;;;;;26.22;39.85;101099.72;5074132;28;20055;-67
2022/09/04 11:42:59;;;;;;;5.72;2.00;;;;;;;26.20;39.49;101105.00;5073473;28;20064;-65
2022/09/04 11:45:31;;;;;;;4.80;2.10;;;;;;;25.88;39.96;101104.25;5055564;28;20783;-67
2022/09/04 11:48:17;;;;;;;5.93;2.28;;;;;;;26.15;39.88;101104.63;5039310;28;20056;-72
2022/09/04 11:51:02;;;;;;;6.28;1.98;;;;;;;26.00;39.85;101095.34;5073296;28;20048;-67
2022/09/04 11:53:42;;;;;;;4.55;1.98;;;;;;;26.09;39.64;101101.41;5039778;28;20476;-67
2022/09/04 11:56:31;;;;;;;4.97;2.13;;;;;;;25.91;40.01;101105.47;5055887;28;20480;-66
2022/09/04 11:59:28;;;;;;;3.42;1.98;;;;;;;25.97;39.61;101101.81;5073852;28;20052;-67
2022/09/04 12:02:22;;;;;;;5.20;2.10;;;;;;;26.04;39.51;101103.84;5073266;28;20053;-68
2022/09/04 12:04:50;;;;;;;9.05;2.30;;;;;;;26.22;39.29;101104.59;5083649;28;20055;-66
2022/09/04 12:07:30;;;;;;;5.18;2.45;;;;;;;26.30;39.01;101092.84;5044225;28;20055;-66
2022/09/04 12:10:41;;;;;;;6.43;2.10;;;;;;;26.50;38.56;101098.78;5041330;28;20060;-67
2022/09/04 12:13:19;;;;;;;6.32;2.20;;;;;;;26.30;38.92;101097.66;5040005;28;20052;-67
2022/09/04 12:16:07;;;;;;;6.13;2.13;;;;;;;26.44;38.77;101089.13;5056973;28;20044;-66
2022/09/04 12:18:53;;;;;;;5.40;2.30;;;;;;;26.36;38.74;101088.34;5056869;28;20123;-67
2022/09/04 12:21:52;;;;;;;6.45;1.92;;;;;;;26.62;38.33;101089.84;5056682;28;20061;-65
2022/09/04 12:24:46;;;;;;;5.63;2.15;;;;;;;26.78;37.97;101083.69;5055194;28;20424;-68
2022/09/04 12:27:20;;;;;;;8.32;2.83;;;;;;;26.59;38.24;101082.97;5058943;28;20056;-65
2022/09/04 12:30:02;;;;;;;6.50;2.45;;;;;;;26.48;38.10;101085.06;5058205;28;20518;-64
2022/09/04 12:33:21;;;;;;;5.05;2.00;;;;;;;26.78;37.87;101078.84;5076336;28;20067;-67
2022/09/04 12:35:51;;;;;;;6.03;2.53;;;;;;;26.90;37.07;101064.22;5053667;28;20057;-65
2022/09/04 12:38:46;;;;;;;5.15;2.25;;;;;;;27.05;37.37;101073.38;5076610;28;20586;-65
2022/09/04 12:41:18;;;;;;;5.20;2.22;;;;;;;27.43;36.62;101066.59;5076402;28;20415;-68
2022/09/04 12:43:54;;;;;;;3.22;1.73;;;;;;;27.69;36.46;101066.72;5058438;28;20052;-67
2022/09/04 12:47:12;;;;;;;6.28;2.00;;;;;;;27.48;37.16;101069.78;5076206;28;20063;-67
2022/09/04 12:49:54;;;;;;;4.70;2.10;;;;;;;27.65;37.05;101070.81;5033785;28;20056;-66
2022/09/04 12:52:35;;;;;;;5.50;2.05;;;;;;;27.85;36.51;101077.47;5058586;28;20049;-68
2022/09/04 12:55:15;;;;;;;4.97;2.20;;;;;;;27.35;36.82;101070.72;5058814;28;20048;-67